sensor_id;sensor_type;location;lat;lon;timestamp;P1;durP1;ratioP1;P2;durP2;ratioP2
3081;SDS011;1551;51.046;7.010;2022-09-06T00:02:12;2.30;;;1.70;;
3081;SDS011;1551;51.046;7.010;2022-09-06T00:05:02;2.50;;;1.50;;
3081;SDS011;1551;51.046;7.010;2022-09-06T00:07:52;1.95;;;1.60;;
3081;SDS011;1551;51.046;7.010;2022-09-06T00:10:41;2.63;;;1.85;;
3081;SDS011;1551;51.046;7.010;2022-09-06T00:13:31;2.40;;;1.73;;
3081;SDS011;1551;51.046;7.010;2022-09-06T00:16:21;2.60;;;1.70;;
3081;SDS011;1551;51.046;7.010;2022-09-06T00:19:11;3.30;;;1.88;;
3081;SDS011;1551;51.046;7.010;2022-09-06T00:22:00;2.53;;;1.83;;
3081;SDS011;1551;51.046;7.010;2022-09-06T00:24:49;3.67;;;2.10;;
3081;SDS011;1551;51.046;7.010;2022-09-06T00:27:38;3.70;;;2.40;;
3081;SDS011;1551;51.046;7.010;2022-09-06T00:30:27;2.75;;;2.00;;
3081;SDS011;1551;51.046;7.010;2022-09-06T00:33:17;4.15;;;2.38;;
3081;SDS011;1551;51.046;7.010;2022-09-06T00:36:07;5.93;;;2.75;;
3081;SDS011;1551;51.046;7.010;2022-09-06T00:38:57;6.30;;;2.75;;
3081;SDS011;1551;51.046;7.010;2022-09-06T00:41:46;4.00;;;2.80;;
3081;SDS011;1551;51.046;7.010;2022-09-06T00:44:36;5.47;;;2.20;;
3081;SDS011;1551;51.046;7.010;2022-09-06T00:47:26;6.07;;;2.63;;
3081;SDS011;1551;51.046;7.010;2022-09-06T00:50:16;5.00;;;2.53;;
3081;SDS011;1551;51.046;7.010;2022-09-06T00:53:07;3.90;;;2.70;;
3081;SDS011;1551;51.046;7.010;2022-09-06T00:55:55;4.20;;;2.50;;
3081;SDS011;1551;51.046;7.010;2022-09-06T00:58:45;2.70;;;2.10;;
3081;SDS011;1551;51.046;7.010;2022-09-06T01:01:36;3.80;;;2.30;;
3081;SDS011;1551;51.046;7.010;2022-09-06T01:04:25;5.20;;;2.40;;
3081;SDS011;1551;51.046;7.010;2022-09-06T01:07:34;4.25;;;2.60;;
3081;SDS011;1551;51.046;7.010;2022-09-06T01:13:48;4.30;;;2.70;;
3081;SDS011;1551;51.046;7.010;2022-09-06T01:20:17;4.70;;;2.50;;
3081;SDS011;1551;51.046;7.010;2022-09-06T01:29:35;4.95;;;3.42;;
3081;SDS011;1551;51.046;7.010;2022-09-06T01:33:18;3.58;;;3.25;;
3081;SDS011;1551;51.046;7.010;2022-09-06T01:36:07;4.40;;;2.70;;
3081;SDS011;1551;51.046;7.010;2022-09-06T01:39:02;5.40;;;3.50;;
3081;SDS011;1551;51.046;7.010;2022-09-06T01:41:53;4.45;;;3.67;;
3081;SDS011;1551;51.046;7.010;2022-09-06T01:44:47;7.90;;;3.97;;
3081;SDS011;1551;51.046;7.010;2022-09-06T01:51:03;5.15;;;3.38;;
3081;SDS011;1551;51.046;7.010;2022-09-06T01:54:17;6.18;;;2.60;;
3081;SDS011;1551;51.046;7.010;2022-09-06T02:00:24;4.97;;;2.50;;
3081;SDS011;1551;51.046;7.010;2022-09-06T02:06:27;5.93;;;3.30;;
3081;SDS011;1551;51.046;7.010;2022-09-06T02:09:21;4.20;;;3.03;;
3081;SDS011;1551;51.046;7.010;2022-09-06T02:12:12;7.85;;;3.10;;
3081;SDS011;1551;51.046;7.010;2022-09-06T02:15:15;4.05;;;2.70;;
3081;SDS011;1551;51.046;7.010;2022-09-06T02:18:12;3.55;;;3.08;;
3081;SDS011;1551;51.046;7.010;2022-09-06T02:21:04;5.30;;;3.55;;
3081;SDS011;1551;51.046;7.010;2022-09-06T02:23:54;6.47;;;3.45;;
3081;SDS011;1551;51.046;7.010;2022-09-06T02:26:45;5.05;;;3.50;;
3081;SDS011;1551;51.046;7.010;2022-09-06T02:29:35;5.90;;;3.50;;
3081;SDS011;1551;51.046;7.010;2022-09-06T02:32:24;4.22;;;3.83;;
3081;SDS011;1551;51.046;7.010;2022-09-06T02:35:14;6.40;;;4.25;;
3081;SDS011;1551;51.046;7.010;2022-09-06T02:38:04;4.13;;;2.95;;
3081;SDS011;1551;51.046;7.010;2022-09-06T02:40:53;6.65;;;3.97;;
3081;SDS011;1551;51.046;7.010;2022-09-06T02:43:43;6.65;;;4.30;;
3081;SDS011;1551;51.046;7.010;2022-09-06T02:46:33;5.25;;;3.40;;
3081;SDS011;1551;51.046;7.010;2022-09-06T02:49:22;4.93;;;3.30;;
3081;SDS011;1551;51.046;7.010;2022-09-06T02:52:12;5.05;;;3.00;;
3081;SDS011;1551;51.046;7.010;2022-09-06T02:55:01;5.15;;;4.18;;
3081;SDS011;1551;51.046;7.010;2022-09-06T02:57:49;6.27;;;4.00;;
3081;SDS011;1551;51.046;7.010;2022-09-06T03:00:38;5.00;;;3.93;;
3081;SDS011;1551;51.046;7.010;2022-09-06T03:03:27;4.55;;;4.00;;
3081;SDS011;1551;51.046;7.010;2022-09-06T03:06:17;4.53;;;4.00;;
3081;SDS011;1551;51.046;7.010;2022-09-06T03:09:06;6.28;;;4.35;;
3081;SDS011;1551;51.046;7.010;2022-09-06T03:11:58;5.18;;;4.30;;
3081;SDS011;1551;51.046;7.010;2022-09-06T03:14:46;7.83;;;4.60;;
3081;SDS011;1551;51.046;7.010;2022-09-06T03:17:35;5.57;;;4.10;;
3081;SDS011;1551;51.046;7.010;2022-09-06T03:20:25;5.43;;;4.22;;
3081;SDS011;1551;51.046;7.010;2022-09-06T03:23:14;5.45;;;3.10;;
3081;SDS011;1551;51.046;7.010;2022-09-06T03:26:03;8.18;;;3.92;;
3081;SDS011;1551;51.046;7.010;2022-09-06T03:28:53;5.50;;;4.38;;
3081;SDS011;1551;51.046;7.010;2022-09-06T03:31:41;4.95;;;4.40;;
3081;SDS011;1551;51.046;7.010;2022-09-06T03:34:30;5.97;;;4.03;;
3081;SDS011;1551;51.046;7.010;2022-09-06T03:37:19;6.57;;;3.87;;
3081;SDS011;1551;51.046;7.010;2022-09-06T03:40:09;5.60;;;4.50;;
3081;SDS011;1551;51.046;7.010;2022-09-06T03:42:59;5.65;;;5.05;;
3081;SDS011;1551;51.046;7.010;2022-09-06T03:45:50;7.60;;;4.57;;
3081;SDS011;1551;51.046;7.010;2022-09-06T03:48:40;6.28;;;3.85;;
3081;SDS011;1551;51.046;7.010;2022-09-06T03:51:29;7.60;;;4.10;;
3081;SDS011;1551;51.046;7.010;2022-09-06T03:54:18;7.47;;;3.80;;
3081;SDS011;1551;51.046;7.010;2022-09-06T03:57:07;4.18;;;3.20;;
3081;SDS011;1551;51.046;7.010;2022-09-06T03:59:56;5.25;;;3.78;;
3081;SDS011;1551;51.046;7.010;2022-09-06T04:02:45;5.60;;;4.47;;
3081;SDS011;1551;51.046;7.010;2022-09-06T04:05:34;6.38;;;4.03;;
3081;SDS011;1551;51.046;7.010;2022-09-06T04:08:24;6.60;;;4.28;;
3081;SDS011;1551;51.046;7.010;2022-09-06T04:11:13;5.30;;;3.50;;
3081;SDS011;1551;51.046;7.010;2022-09-06T04:14:02;6.97;;;4.20;;
3081;SDS011;1551;51.046;7.010;2022-09-06T04:16:51;5.57;;;4.27;;
3081;SDS011;1551;51.046;7.010;2022-09-06T04:19:40;6.07;;;4.07;;
3081;SDS011;1551;51.046;7.010;2022-09-06T04:22:29;16.55;;;7.15;;
3081;SDS011;1551;51.046;7.010;2022-09-06T04:25:19;15.13;;;7.07;;
3081;SDS011;1551;51.046;7.010;2022-09-06T04:28:08;8.27;;;5.35;;
3081;SDS011;1551;51.046;7.010;2022-09-06T04:30:58;13.75;;;5.82;;
3081;SDS011;1551;51.046;7.010;2022-09-06T04:33:48;13.73;;;5.30;;
3081;SDS011;1551;51.046;7.010;2022-09-06T04:36:37;7.17;;;3.90;;
3081;SDS011;1551;51.046;7.010;2022-09-06T04:39:26;6.22;;;4.32;;
3081;SDS011;1551;51.046;7.010;2022-09-06T04:42:15;7.20;;;4.20;;
3081;SDS011;1551;51.046;7.010;2022-09-06T04:45:04;7.18;;;4.22;;
3081;SDS011;1551;51.046;7.010;2022-09-06T04:47:55;6.47;;;3.80;;
3081;SDS011;1551;51.046;7.010;2022-09-06T04:50:44;3.97;;;3.57;;
3081;SDS011;1551;51.046;7.010;2022-09-06T04:53:33;5.38;;;4.07;;
3081;SDS011;1551;51.046;7.010;2022-09-06T04:56:23;4.75;;;3.50;;
3081;SDS011;1551;51.046;7.010;2022-09-06T04:59:13;7.03;;;3.25;;
3081;SDS011;1551;51.046;7.010;2022-09-06T05:02:02;4.88;;;3.17;;
3081;SDS011;1551;51.046;7.010;2022-09-06T05:04:51;3.80;;;3.10;;
3081;SDS011;1551;51.046;7.010;2022-09-06T05:07:42;4.28;;;2.88;;
3081;SDS011;1551;51.046;7.010;2022-09-06T05:10:31;4.00;;;3.33;;
3081;SDS011;1551;51.046;7.010;2022-09-06T05:13:20;4.47;;;3.40;;
3081;SDS011;1551;51.046;7.010;2022-09-06T05:16:09;4.20;;;3.00;;
3081;SDS011;1551;51.046;7.010;2022-09-06T05:18:58;4.03;;;3.35;;
3081;SDS011;1551;51.046;7.010;2022-09-06T05:21:47;3.78;;;3.13;;
3081;SDS011;1551;51.046;7.010;2022-09-06T05:24:35;3.23;;;2.80;;
3081;SDS011;1551;51.046;7.010;2022-09-06T05:27:24;3.42;;;2.72;;
3081;SDS011;1551;51.046;7.010;2022-09-06T05:30:13;5.00;;;3.10;;
3081;SDS011;1551;51.046;7.010;2022-09-06T05:33:03;3.78;;;3.03;;
3081;SDS011;1551;51.046;7.010;2022-09-06T05:35:52;4.40;;;3.37;;
3081;SDS011;1551;51.046;7.010;2022-09-06T05:38:40;4.95;;;3.40;;
3081;SDS011;1551;51.046;7.010;2022-09-06T05:41:29;5.25;;;2.90;;
3081;SDS011;1551;51.046;7.010;2022-09-06T05:44:20;5.35;;;3.42;;
3081;SDS011;1551;51.046;7.010;2022-09-06T05:47:09;4.80;;;3.43;;
3081;SDS011;1551;51.046;7.010;2022-09-06T05:49:58;4.50;;;3.13;;
3081;SDS011;1551;51.046;7.010;2022-09-06T05:52:47;4.80;;;3.30;;
3081;SDS011;1551;51.046;7.010;2022-09-06T05:55:36;6.85;;;3.47;;
3081;SDS011;1551;51.046;7.010;2022-09-06T05:58:25;4.18;;;3.38;;
3081;SDS011;1551;51.046;7.010;2022-09-06T06:01:18;5.45;;;3.33;;
3081;SDS011;1551;51.046;7.010;2022-09-06T06:04:12;4.00;;;3.00;;
3081;SDS011;1551;51.046;7.010;2022-09-06T06:07:01;5.07;;;3.10;;
3081;SDS011;1551;51.046;7.010;2022-09-06T06:09:50;5.13;;;2.80;;
3081;SDS011;1551;51.046;7.010;2022-09-06T06:12:39;6.90;;;3.35;;
3081;SDS011;1551;51.046;7.010;2022-09-06T06:15:28;5.03;;;3.20;;
3081;SDS011;1551;51.046;7.010;2022-09-06T06:18:17;3.83;;;2.90;;
3081;SDS011;1551;51.046;7.010;2022-09-06T06:24:03;4.60;;;2.97;;
3081;SDS011;1551;51.046;7.010;2022-09-06T06:26:53;3.50;;;2.65;;
3081;SDS011;1551;51.046;7.010;2022-09-06T06:29:42;4.95;;;3.10;;
3081;SDS011;1551;51.046;7.010;2022-09-06T06:32:31;2.97;;;2.50;;
3081;SDS011;1551;51.046;7.010;2022-09-06T06:35:20;4.93;;;2.80;;
3081;SDS011;1551;51.046;7.010;2022-09-06T06:38:09;4.30;;;3.05;;
3081;SDS011;1551;51.046;7.010;2022-09-06T06:40:58;5.65;;;3.53;;
3081;SDS011;1551;51.046;7.010;2022-09-06T06:43:51;5.70;;;3.50;;
3081;SDS011;1551;51.046;7.010;2022-09-06T06:46:41;3.47;;;3.05;;
3081;SDS011;1551;51.046;7.010;2022-09-06T06:49:30;4.05;;;2.60;;
3081;SDS011;1551;51.046;7.010;2022-09-06T06:52:19;4.20;;;2.60;;
3081;SDS011;1551;51.046;7.010;2022-09-06T06:55:09;3.75;;;3.10;;
3081;SDS011;1551;51.046;7.010;2022-09-06T06:57:59;5.53;;;3.42;;
3081;SDS011;1551;51.046;7.010;2022-09-06T07:00:48;3.67;;;2.70;;
3081;SDS011;1551;51.046;7.010;2022-09-06T07:03:37;3.20;;;2.90;;
3081;SDS011;1551;51.046;7.010;2022-09-06T07:06:26;2.95;;;2.60;;
3081;SDS011;1551;51.046;7.010;2022-09-06T07:09:16;4.30;;;2.50;;
3081;SDS011;1551;51.046;7.010;2022-09-06T07:12:07;3.72;;;2.60;;
3081;SDS011;1551;51.046;7.010;2022-09-06T07:14:56;3.40;;;2.83;;
3081;SDS011;1551;51.046;7.010;2022-09-06T07:17:45;4.28;;;2.67;;
3081;SDS011;1551;51.046;7.010;2022-09-06T07:20:34;4.15;;;2.75;;
3081;SDS011;1551;51.046;7.010;2022-09-06T07:23:23;3.22;;;2.40;;
3081;SDS011;1551;51.046;7.010;2022-09-06T07:26:14;2.60;;;2.40;;
3081;SDS011;1551;51.046;7.010;2022-09-06T07:29:04;2.80;;;2.40;;
3081;SDS011;1551;51.046;7.010;2022-09-06T07:31:54;3.58;;;2.72;;
3081;SDS011;1551;51.046;7.010;2022-09-06T07:34:45;3.90;;;2.60;;
3081;SDS011;1551;51.046;7.010;2022-09-06T07:37:34;3.08;;;2.47;;
3081;SDS011;1551;51.046;7.010;2022-09-06T07:40:23;4.20;;;2.63;;
3081;SDS011;1551;51.046;7.010;2022-09-06T07:43:14;2.58;;;2.17;;
3081;SDS011;1551;51.046;7.010;2022-09-06T07:46:07;3.00;;;2.20;;
3081;SDS011;1551;51.046;7.010;2022-09-06T07:48:57;3.78;;;2.33;;
3081;SDS011;1551;51.046;7.010;2022-09-06T07:51:47;3.03;;;2.15;;
3081;SDS011;1551;51.046;7.010;2022-09-06T07:54:36;2.90;;;1.92;;
3081;SDS011;1551;51.046;7.010;2022-09-06T07:57:25;3.05;;;2.03;;
3081;SDS011;1551;51.046;7.010;2022-09-06T08:00:14;2.58;;;1.88;;
3081;SDS011;1551;51.046;7.010;2022-09-06T08:03:03;2.45;;;1.70;;
3081;SDS011;1551;51.046;7.010;2022-09-06T08:05:52;3.40;;;2.10;;
3081;SDS011;1551;51.046;7.010;2022-09-06T08:08:41;2.58;;;1.60;;
3081;SDS011;1551;51.046;7.010;2022-09-06T08:11:31;4.10;;;1.90;;
3081;SDS011;1551;51.046;7.010;2022-09-06T08:14:21;2.25;;;1.67;;
3081;SDS011;1551;51.046;7.010;2022-09-06T08:17:10;3.75;;;1.52;;
3081;SDS011;1551;51.046;7.010;2022-09-06T08:20:01;2.10;;;1.80;;
3081;SDS011;1551;51.046;7.010;2022-09-06T08:22:51;2.10;;;1.52;;
3081;SDS011;1551;51.046;7.010;2022-09-06T08:25:39;2.30;;;1.60;;
3081;SDS011;1551;51.046;7.010;2022-09-06T08:28:29;2.47;;;1.55;;
3081;SDS011;1551;51.046;7.010;2022-09-06T08:31:18;2.80;;;1.40;;
3081;SDS011;1551;51.046;7.010;2022-09-06T08:34:07;2.95;;;1.40;;
3081;SDS011;1551;51.046;7.010;2022-09-06T08:36:57;1.73;;;1.20;;
3081;SDS011;1551;51.046;7.010;2022-09-06T08:39:45;2.40;;;1.20;;
3081;SDS011;1551;51.046;7.010;2022-09-06T08:42:37;2.17;;;1.30;;
3081;SDS011;1551;51.046;7.010;2022-09-06T08:45:27;3.65;;;2.00;;
3081;SDS011;1551;51.046;7.010;2022-09-06T08:48:16;2.92;;;1.20;;
3081;SDS011;1551;51.046;7.010;2022-09-06T08:54:25;1.90;;;1.20;;
3081;SDS011;1551;51.046;7.010;2022-09-06T08:57:30;2.08;;;1.30;;
3081;SDS011;1551;51.046;7.010;2022-09-06T09:00:22;2.55;;;1.25;;
3081;SDS011;1551;51.046;7.010;2022-09-06T09:03:13;2.47;;;1.00;;
3081;SDS011;1551;51.046;7.010;2022-09-06T09:06:08;2.00;;;1.30;;
3081;SDS011;1551;51.046;7.010;2022-09-06T09:09:07;2.50;;;1.30;;
3081;SDS011;1551;51.046;7.010;2022-09-06T09:12:00;1.52;;;1.05;;
3081;SDS011;1551;51.046;7.010;2022-09-06T09:14:51;2.40;;;1.50;;
3081;SDS011;1551;51.046;7.010;2022-09-06T09:17:47;3.20;;;1.40;;
3081;SDS011;1551;51.046;7.010;2022-09-06T09:20:38;2.20;;;1.30;;
3081;SDS011;1551;51.046;7.010;2022-09-06T09:23:28;3.10;;;1.10;;
3081;SDS011;1551;51.046;7.010;2022-09-06T09:26:18;2.10;;;1.05;;
3081;SDS011;1551;51.046;7.010;2022-09-06T09:29:11;3.10;;;1.27;;
3081;SDS011;1551;51.046;7.010;2022-09-06T09:32:01;1.85;;;1.00;;
3081;SDS011;1551;51.046;7.010;2022-09-06T09:34:51;1.50;;;0.98;;
3081;SDS011;1551;51.046;7.010;2022-09-06T09:37:40;1.90;;;0.90;;
3081;SDS011;1551;51.046;7.010;2022-09-06T09:40:31;2.10;;;1.30;;
3081;SDS011;1551;51.046;7.010;2022-09-06T09:43:23;5.88;;;1.50;;
3081;SDS011;1551;51.046;7.010;2022-09-06T09:46:15;2.80;;;1.00;;
3081;SDS011;1551;51.046;7.010;2022-09-06T09:49:26;2.42;;;1.20;;
3081;SDS011;1551;51.046;7.010;2022-09-06T09:52:15;2.90;;;1.30;;
3081;SDS011;1551;51.046;7.010;2022-09-06T09:55:12;2.25;;;0.98;;
3081;SDS011;1551;51.046;7.010;2022-09-06T09:58:01;1.67;;;0.90;;
3081;SDS011;1551;51.046;7.010;2022-09-06T10:01:11;2.10;;;1.10;;
3081;SDS011;1551;51.046;7.010;2022-09-06T10:04:06;2.30;;;1.20;;
3081;SDS011;1551;51.046;7.010;2022-09-06T10:10:20;2.50;;;1.20;;
3081;SDS011;1551;51.046;7.010;2022-09-06T10:13:24;1.88;;;1.10;;
3081;SDS011;1551;51.046;7.010;2022-09-06T10:16:19;2.20;;;1.33;;
3081;SDS011;1551;51.046;7.010;2022-09-06T10:22:31;2.65;;;1.40;;
3081;SDS011;1551;51.046;7.010;2022-09-06T10:34:49;2.70;;;1.50;;
3081;SDS011;1551;51.046;7.010;2022-09-06T10:44:22;3.20;;;1.40;;
3081;SDS011;1551;51.046;7.010;2022-09-06T10:47:23;2.22;;;1.35;;
3081;SDS011;1551;51.046;7.010;2022-09-06T10:50:39;3.00;;;1.50;;
3081;SDS011;1551;51.046;7.010;2022-09-06T10:53:36;2.00;;;1.58;;
3081;SDS011;1551;51.046;7.010;2022-09-06T10:59:50;2.55;;;1.40;;
3081;SDS011;1551;51.046;7.010;2022-09-06T11:02:48;2.23;;;1.20;;
3081;SDS011;1551;51.046;7.010;2022-09-06T11:05:59;3.20;;;1.50;;
3081;SDS011;1551;51.046;7.010;2022-09-06T11:12:20;2.85;;;1.67;;
3081;SDS011;1551;51.046;7.010;2022-09-06T11:15:17;3.30;;;2.00;;
3081;SDS011;1551;51.046;7.010;2022-09-06T11:21:27;2.45;;;1.60;;
3081;SDS011;1551;51.046;7.010;2022-09-06T11:24:52;2.13;;;1.40;;
3081;SDS011;1551;51.046;7.010;2022-09-06T11:28:08;2.58;;;1.90;;
3081;SDS011;1551;51.046;7.010;2022-09-06T11:31:01;2.92;;;1.70;;
3081;SDS011;1551;51.046;7.010;2022-09-06T11:34:11;3.53;;;2.10;;
3081;SDS011;1551;51.046;7.010;2022-09-06T11:37:07;2.80;;;1.60;;
3081;SDS011;1551;51.046;7.010;2022-09-06T11:40:13;2.50;;;1.35;;
3081;SDS011;1551;51.046;7.010;2022-09-06T11:43:07;2.83;;;1.30;;
3081;SDS011;1551;51.046;7.010;2022-09-06T11:45:59;3.70;;;1.30;;
3081;SDS011;1551;51.046;7.010;2022-09-06T11:49:05;2.22;;;1.50;;
3081;SDS011;1551;51.046;7.010;2022-09-06T11:59:03;3.13;;;1.70;;
3081;SDS011;1551;51.046;7.010;2022-09-06T12:02:28;2.50;;;1.70;;
3081;SDS011;1551;51.046;7.010;2022-09-06T12:05:30;2.58;;;1.60;;
3081;SDS011;1551;51.046;7.010;2022-09-06T12:08:24;3.00;;;1.70;;
3081;SDS011;1551;51.046;7.010;2022-09-06T12:14:38;3.30;;;1.40;;
3081;SDS011;1551;51.046;7.010;2022-09-06T12:17:38;3.63;;;1.60;;
3081;SDS011;1551;51.046;7.010;2022-09-06T12:23:42;1.90;;;1.50;;
3081;SDS011;1551;51.046;7.010;2022-09-06T12:26:50;2.50;;;1.40;;
3081;SDS011;1551;51.046;7.010;2022-09-06T12:32:47;2.80;;;1.60;;
3081;SDS011;1551;51.046;7.010;2022-09-06T12:35:37;4.00;;;1.70;;
3081;SDS011;1551;51.046;7.010;2022-09-06T12:38:27;2.00;;;1.20;;
3081;SDS011;1551;51.046;7.010;2022-09-06T12:41:16;2.30;;;1.70;;
3081;SDS011;1551;51.046;7.010;2022-09-06T12:44:05;3.03;;;1.50;;
3081;SDS011;1551;51.046;7.010;2022-09-06T12:47:02;2.85;;;1.30;;
3081;SDS011;1551;51.046;7.010;2022-09-06T12:53:18;2.10;;;1.50;;
3081;SDS011;1551;51.046;7.010;2022-09-06T12:56:13;2.70;;;1.40;;
3081;SDS011;1551;51.046;7.010;2022-09-06T12:59:09;2.50;;;1.50;;
3081;SDS011;1551;51.046;7.010;2022-09-06T13:02:26;3.20;;;1.30;;
3081;SDS011;1551;51.046;7.010;2022-09-06T13:05:26;3.10;;;1.70;;
3081;SDS011;1551;51.046;7.010;2022-09-06T13:08:23;3.53;;;1.50;;
3081;SDS011;1551;51.046;7.010;2022-09-06T13:11:35;3.20;;;1.50;;
3081;SDS011;1551;51.046;7.010;2022-09-06T13:14:28;2.72;;;1.90;;
3081;SDS011;1551;51.046;7.010;2022-09-06T13:17:24;2.90;;;1.90;;
3081;SDS011;1551;51.046;7.010;2022-09-06T13:20:21;2.50;;;1.60;;
3081;SDS011;1551;51.046;7.010;2022-09-06T13:23:19;2.90;;;1.50;;
3081;SDS011;1551;51.046;7.010;2022-09-06T13:26:08;2.40;;;1.80;;
3081;SDS011;1551;51.046;7.010;2022-09-06T13:32:11;2.70;;;1.90;;
3081;SDS011;1551;51.046;7.010;2022-09-06T13:35:02;2.10;;;1.60;;
3081;SDS011;1551;51.046;7.010;2022-09-06T13:37:51;3.85;;;1.80;;
3081;SDS011;1551;51.046;7.010;2022-09-06T13:40:41;3.25;;;1.58;;
3081;SDS011;1551;51.046;7.010;2022-09-06T13:43:38;3.38;;;1.50;;
3081;SDS011;1551;51.046;7.010;2022-09-06T13:46:31;3.10;;;1.42;;
3081;SDS011;1551;51.046;7.010;2022-09-06T13:49:21;2.50;;;1.40;;
3081;SDS011;1551;51.046;7.010;2022-09-06T13:52:14;2.00;;;1.38;;
3081;SDS011;1551;51.046;7.010;2022-09-06T13:55:02;4.22;;;1.42;;
3081;SDS011;1551;51.046;7.010;2022-09-06T13:57:52;2.58;;;1.45;;
3081;SDS011;1551;51.046;7.010;2022-09-06T14:00:41;2.25;;;1.30;;
3081;SDS011;1551;51.046;7.010;2022-09-06T14:03:30;2.50;;;1.50;;
3081;SDS011;1551;51.046;7.010;2022-09-06T14:06:20;1.90;;;1.20;;
3081;SDS011;1551;51.046;7.010;2022-09-06T14:09:09;3.30;;;2.00;;
3081;SDS011;1551;51.046;7.010;2022-09-06T14:11:58;2.88;;;1.77;;
3081;SDS011;1551;51.046;7.010;2022-09-06T14:14:52;4.00;;;1.40;;
3081;SDS011;1551;51.046;7.010;2022-09-06T14:17:41;1.95;;;1.40;;
3081;SDS011;1551;51.046;7.010;2022-09-06T14:20:30;3.80;;;1.40;;
3081;SDS011;1551;51.046;7.010;2022-09-06T14:23:19;2.80;;;1.40;;
3081;SDS011;1551;51.046;7.010;2022-09-06T14:26:08;3.30;;;1.80;;
3081;SDS011;1551;51.046;7.010;2022-09-06T14:28:59;1.95;;;1.40;;
3081;SDS011;1551;51.046;7.010;2022-09-06T14:31:49;2.22;;;1.58;;
3081;SDS011;1551;51.046;7.010;2022-09-06T14:34:42;3.00;;;1.50;;
3081;SDS011;1551;51.046;7.010;2022-09-06T14:37:32;2.00;;;1.30;;
3081;SDS011;1551;51.046;7.010;2022-09-06T14:40:21;3.70;;;1.70;;
3081;SDS011;1551;51.046;7.010;2022-09-06T14:43:10;2.70;;;1.40;;
3081;SDS011;1551;51.046;7.010;2022-09-06T14:46:06;3.33;;;2.00;;
3081;SDS011;1551;51.046;7.010;2022-09-06T14:48:58;3.42;;;1.60;;
3081;SDS011;1551;51.046;7.010;2022-09-06T14:51:50;2.90;;;1.60;;
3081;SDS011;1551;51.046;7.010;2022-09-06T14:54:39;4.83;;;1.20;;
3081;SDS011;1551;51.046;7.010;2022-09-06T14:57:28;4.93;;;1.30;;
3081;SDS011;1551;51.046;7.010;2022-09-06T15:00:17;4.65;;;1.80;;
3081;SDS011;1551;51.046;7.010;2022-09-06T15:03:07;2.80;;;1.30;;
3081;SDS011;1551;51.046;7.010;2022-09-06T15:05:56;1.90;;;1.40;;
3081;SDS011;1551;51.046;7.010;2022-09-06T15:08:45;2.80;;;1.23;;
3081;SDS011;1551;51.046;7.010;2022-09-06T15:11:36;2.67;;;1.25;;
3081;SDS011;1551;51.046;7.010;2022-09-06T15:14:28;3.05;;;1.70;;
3081;SDS011;1551;51.046;7.010;2022-09-06T15:17:17;2.95;;;1.38;;
3081;SDS011;1551;51.046;7.010;2022-09-06T15:20:06;2.22;;;1.40;;
3081;SDS011;1551;51.046;7.010;2022-09-06T15:22:55;1.90;;;1.23;;
3081;SDS011;1551;51.046;7.010;2022-09-06T15:25:46;2.53;;;1.50;;
3081;SDS011;1551;51.046;7.010;2022-09-06T15:28:36;2.40;;;1.30;;
3081;SDS011;1551;51.046;7.010;2022-09-06T15:31:27;2.60;;;1.40;;
3081;SDS011;1551;51.046;7.010;2022-09-06T15:34:17;4.00;;;1.60;;
3081;SDS011;1551;51.046;7.010;2022-09-06T15:37:10;3.80;;;1.70;;
3081;SDS011;1551;51.046;7.010;2022-09-06T15:39:59;3.10;;;1.10;;
3081;SDS011;1551;51.046;7.010;2022-09-06T15:42:48;4.20;;;1.70;;
3081;SDS011;1551;51.046;7.010;2022-09-06T15:45:47;2.42;;;1.52;;
3081;SDS011;1551;51.046;7.010;2022-09-06T15:48:41;5.10;;;1.20;;
3081;SDS011;1551;51.046;7.010;2022-09-06T15:51:32;1.95;;;1.13;;
3081;SDS011;1551;51.046;7.010;2022-09-06T15:54:23;3.22;;;1.20;;
3081;SDS011;1551;51.046;7.010;2022-09-06T15:57:32;2.13;;;1.15;;
3081;SDS011;1551;51.046;7.010;2022-09-06T16:00:20;2.90;;;1.30;;
3081;SDS011;1551;51.046;7.010;2022-09-06T16:03:11;2.40;;;1.20;;
3081;SDS011;1551;51.046;7.010;2022-09-06T16:06:03;3.08;;;1.20;;
3081;SDS011;1551;51.046;7.010;2022-09-06T16:09:01;2.00;;;1.27;;
3081;SDS011;1551;51.046;7.010;2022-09-06T16:11:54;2.90;;;1.23;;
3081;SDS011;1551;51.046;7.010;2022-09-06T16:14:43;2.90;;;1.40;;
3081;SDS011;1551;51.046;7.010;2022-09-06T16:17:32;3.07;;;1.20;;
3081;SDS011;1551;51.046;7.010;2022-09-06T16:20:21;2.63;;;1.00;;
3081;SDS011;1551;51.046;7.010;2022-09-06T16:23:10;1.90;;;1.48;;
3081;SDS011;1551;51.046;7.010;2022-09-06T16:25:59;2.20;;;1.13;;
3081;SDS011;1551;51.046;7.010;2022-09-06T16:28:49;1.70;;;1.10;;
3081;SDS011;1551;51.046;7.010;2022-09-06T16:31:40;2.00;;;1.42;;
3081;SDS011;1551;51.046;7.010;2022-09-06T16:34:28;4.60;;;1.42;;
3081;SDS011;1551;51.046;7.010;2022-09-06T16:37:17;3.00;;;1.30;;
3081;SDS011;1551;51.046;7.010;2022-09-06T16:40:07;1.90;;;1.30;;
3081;SDS011;1551;51.046;7.010;2022-09-06T16:42:57;2.10;;;1.55;;
3081;SDS011;1551;51.046;7.010;2022-09-06T16:46:04;3.60;;;1.48;;
3081;SDS011;1551;51.046;7.010;2022-09-06T16:48:54;2.10;;;1.40;;
3081;SDS011;1551;51.046;7.010;2022-09-06T16:51:45;2.75;;;1.63;;
3081;SDS011;1551;51.046;7.010;2022-09-06T16:54:36;1.63;;;1.10;;
3081;SDS011;1551;51.046;7.010;2022-09-06T16:57:25;2.00;;;1.00;;
3081;SDS011;1551;51.046;7.010;2022-09-06T17:00:14;2.58;;;1.30;;
3081;SDS011;1551;51.046;7.010;2022-09-06T17:03:03;2.95;;;1.50;;
3081;SDS011;1551;51.046;7.010;2022-09-06T17:05:52;3.70;;;1.30;;
3081;SDS011;1551;51.046;7.010;2022-09-06T17:08:42;2.60;;;1.48;;
3081;SDS011;1551;51.046;7.010;2022-09-06T17:11:31;2.65;;;1.60;;
3081;SDS011;1551;51.046;7.010;2022-09-06T17:14:20;4.13;;;1.40;;
3081;SDS011;1551;51.046;7.010;2022-09-06T17:17:09;2.42;;;1.40;;
3081;SDS011;1551;51.046;7.010;2022-09-06T17:19:58;2.40;;;1.40;;
3081;SDS011;1551;51.046;7.010;2022-09-06T17:22:50;2.10;;;1.30;;
3081;SDS011;1551;51.046;7.010;2022-09-06T17:25:40;2.20;;;1.10;;
3081;SDS011;1551;51.046;7.010;2022-09-06T17:28:34;3.38;;;1.40;;
3081;SDS011;1551;51.046;7.010;2022-09-06T17:31:25;3.08;;;1.45;;
3081;SDS011;1551;51.046;7.010;2022-09-06T17:34:14;3.30;;;1.50;;
3081;SDS011;1551;51.046;7.010;2022-09-06T17:37:04;3.22;;;1.40;;
3081;SDS011;1551;51.046;7.010;2022-09-06T17:39:54;2.63;;;1.38;;
3081;SDS011;1551;51.046;7.010;2022-09-06T17:42:42;2.50;;;1.30;;
3081;SDS011;1551;51.046;7.010;2022-09-06T17:45:36;2.50;;;1.40;;
3081;SDS011;1551;51.046;7.010;2022-09-06T17:48:26;1.80;;;1.20;;
3081;SDS011;1551;51.046;7.010;2022-09-06T17:51:16;2.30;;;1.60;;
3081;SDS011;1551;51.046;7.010;2022-09-06T17:54:06;3.65;;;1.58;;
3081;SDS011;1551;51.046;7.010;2022-09-06T18:00:12;2.72;;;1.45;;
3081;SDS011;1551;51.046;7.010;2022-09-06T18:03:01;3.50;;;1.70;;
3081;SDS011;1551;51.046;7.010;2022-09-06T18:05:50;2.10;;;1.50;;
3081;SDS011;1551;51.046;7.010;2022-09-06T18:08:41;3.15;;;2.67;;
3081;SDS011;1551;51.046;7.010;2022-09-06T18:11:32;4.67;;;3.80;;
3081;SDS011;1551;51.046;7.010;2022-09-06T18:14:21;7.43;;;4.30;;
3081;SDS011;1551;51.046;7.010;2022-09-06T18:17:11;8.48;;;3.20;;
3081;SDS011;1551;51.046;7.010;2022-09-06T18:20:00;3.70;;;2.80;;
3081;SDS011;1551;51.046;7.010;2022-09-06T18:22:49;5.38;;;2.42;;
3081;SDS011;1551;51.046;7.010;2022-09-06T18:25:39;4.05;;;2.10;;
3081;SDS011;1551;51.046;7.010;2022-09-06T18:28:28;3.92;;;1.70;;
3081;SDS011;1551;51.046;7.010;2022-09-06T18:31:20;5.05;;;1.80;;
3081;SDS011;1551;51.046;7.010;2022-09-06T18:34:10;4.10;;;1.90;;
3081;SDS011;1551;51.046;7.010;2022-09-06T18:37:01;3.00;;;1.70;;
3081;SDS011;1551;51.046;7.010;2022-09-06T18:39:50;4.60;;;2.10;;
3081;SDS011;1551;51.046;7.010;2022-09-06T18:42:43;3.20;;;2.10;;
3081;SDS011;1551;51.046;7.010;2022-09-06T18:45:32;3.78;;;1.70;;
3081;SDS011;1551;51.046;7.010;2022-09-06T18:48:21;3.20;;;2.00;;
3081;SDS011;1551;51.046;7.010;2022-09-06T18:51:11;6.35;;;2.10;;
3081;SDS011;1551;51.046;7.010;2022-09-06T18:54:02;3.38;;;1.92;;
3081;SDS011;1551;51.046;7.010;2022-09-06T18:56:51;6.20;;;2.50;;
3081;SDS011;1551;51.046;7.010;2022-09-06T18:59:39;3.83;;;2.50;;
3081;SDS011;1551;51.046;7.010;2022-09-06T19:02:28;3.00;;;1.80;;
3081;SDS011;1551;51.046;7.010;2022-09-06T19:05:18;3.78;;;1.90;;
3081;SDS011;1551;51.046;7.010;2022-09-06T19:08:08;2.53;;;2.17;;
3081;SDS011;1551;51.046;7.010;2022-09-06T19:10:58;4.47;;;1.70;;
3081;SDS011;1551;51.046;7.010;2022-09-06T19:13:53;4.20;;;1.73;;
3081;SDS011;1551;51.046;7.010;2022-09-06T19:16:43;4.70;;;1.85;;